Airfield :
LOGIN :

Register | Disclaimer

   EN    FR    IT 

 










Legend :    VFR   Marginal VFR   IFR   Intensive IFR   Very Intensive IFR
Visi :
Ceiling :
>= 8 km
>= 3000ft
5 to 8 km
1000 to 3000 ft
1500m to 5 km
500 to 1000 ft
800 to 1500m
200 to 500 ft
< 800m
< 200 ft
Symbols :   Thunderstorms  Fog  Heavy snow  Heavy precipitations  Wind > 20 kt
SIGMETs :     Misc.  Thunderstorms  Icing  Turbulence  Mountain Waves  Volcanic Ashes






- Airport Elevation : 353 ft
- IATA code : ZAG


LDZA - Zagreb Pleso

CURRENT METAR :
  • 232200Z 00000KT CAVOK 06/05 Q1031 NOSIG

EXPIRED METARs :
  • 232130Z 32002KT CAVOK 07/06 Q1031 NOSIG
  • 232100Z 04001KT CAVOK 08/06 Q1031 NOSIG
  • 232030Z VRB01KT CAVOK 08/06 Q1031 NOSIG
  • 232000Z 09001KT CAVOK 08/06 Q1030 NOSIG

TAF TAF LDZA
Valid from the 23 at 18:00 until the 24 at 18:00 UTC


231725Z 2318/2418 VRB02KT 9999 SCT015 BKN045 TX12/2412Z TN02/2404Z
TEMPO 2321/2409 3000 BR
PROB40 2401/2407 0300 FG VV001
ATIS : +385 1 6-259-214



MET'MAP, your aeronautical weather chart ! - Copyright ORBIFLY December 2007 - Disclaimer

ORBIFLY MET'MAP TEAM :

Programming & Development : Alexandra Zaïnal
Concept & original design : Baudouin d'Aumeries
Assistance for programming : Marc-Olivier Méhu
Technical & hardware support : Manuel Goepfert

Contact : metmap@orbifly.com




SOURCES & CREDITS :

   NOAA